createdAt,value
2023-02-06T00:00:41.654Z,4.38
2023-02-06T00:05:43.180Z,3.00
2023-02-06T00:10:44.713Z,3.47
2023-02-06T00:15:46.589Z,2.92
2023-02-06T00:20:48.200Z,2.80
2023-02-06T00:25:49.754Z,2.53
2023-02-06T00:30:51.421Z,2.88
2023-02-06T00:35:52.858Z,3.08
2023-02-06T00:40:54.512Z,3.60
2023-02-06T00:45:57.403Z,3.00
2023-02-06T00:50:58.874Z,3.20
2023-02-06T00:56:00.318Z,2.70
2023-02-06T01:01:01.789Z,3.90
2023-02-06T01:06:03.501Z,4.32
2023-02-06T01:11:18.092Z,2.88
2023-02-06T01:16:22.927Z,2.38
2023-02-06T01:21:25.507Z,2.50
2023-02-06T01:26:27.481Z,2.67
2023-02-06T01:31:30.692Z,3.10
2023-02-06T01:36:32.176Z,2.67
2023-02-06T01:41:34.350Z,2.33
2023-02-06T01:46:36.248Z,3.78
2023-02-06T01:51:38.664Z,3.25
2023-02-06T01:56:47.671Z,2.92
2023-02-06T02:01:49.196Z,2.85
2023-02-06T02:07:01.278Z,3.40
2023-02-06T02:12:03.081Z,4.00
2023-02-06T02:17:23.191Z,4.70
2023-02-06T02:22:49.925Z,3.10
2023-02-06T02:28:17.395Z,2.63
2023-02-06T02:33:24.512Z,3.78
2023-02-06T02:38:57.144Z,3.47
2023-02-06T02:44:03.693Z,3.53
2023-02-06T02:49:11.077Z,3.33
2023-02-06T02:54:12.755Z,3.58
2023-02-06T03:04:53.556Z,3.72
2023-02-06T03:10:27.170Z,3.80
2023-02-06T03:15:47.078Z,3.20
2023-02-06T03:20:49.639Z,3.42
2023-02-06T03:25:52.768Z,4.95
2023-02-06T03:30:57.884Z,3.42
2023-02-06T03:35:59.611Z,3.75
2023-02-06T03:41:01.885Z,3.90
2023-02-06T03:46:06.012Z,3.83
2023-02-06T03:51:13.062Z,3.78
2023-02-06T03:56:27.713Z,3.15
2023-02-06T04:01:29.484Z,4.68
2023-02-06T04:06:30.844Z,3.80
2023-02-06T04:11:32.311Z,3.50
2023-02-06T04:16:33.758Z,3.35
2023-02-06T04:21:35.227Z,3.63
2023-02-06T04:26:36.624Z,3.08
2023-02-06T04:31:38.909Z,2.95
2023-02-06T04:36:40.322Z,3.40
2023-02-06T04:41:41.725Z,3.17
2023-02-06T04:46:43.752Z,2.92
2023-02-06T04:51:45.229Z,3.90
2023-02-06T04:56:46.939Z,3.95
2023-02-06T05:01:48.439Z,3.20
2023-02-06T05:06:50.058Z,4.35
2023-02-06T05:11:51.510Z,4.32
2023-02-06T05:21:54.470Z,4.38
2023-02-06T05:26:58.244Z,4.95
2023-02-06T05:31:59.746Z,6.90
2023-02-06T05:37:01.370Z,5.80
2023-02-06T05:42:03.094Z,4.50
2023-02-06T05:47:04.600Z,4.30
2023-02-06T05:52:06.101Z,4.80
2023-02-06T05:57:07.606Z,4.38
2023-02-06T06:02:09.559Z,4.43
2023-02-06T06:07:10.965Z,4.53
2023-02-06T06:17:14.238Z,4.55
2023-02-06T06:22:15.757Z,2.95
2023-02-06T06:27:17.188Z,4.53
2023-02-06T06:32:19.399Z,3.88
2023-02-06T06:37:20.889Z,3.58
2023-02-06T06:42:22.357Z,5.88
2023-02-06T06:47:23.774Z,4.82
2023-02-06T06:52:25.882Z,4.32
2023-02-06T06:57:30.652Z,6.35
2023-02-06T07:02:32.211Z,4.05
2023-02-06T07:07:33.869Z,5.07
2023-02-06T07:12:36.066Z,4.50
2023-02-06T07:17:37.982Z,4.68
2023-02-06T07:22:39.496Z,5.05
2023-02-06T07:30:04.951Z,4.20
2023-02-06T07:35:07.622Z,5.57
2023-02-06T07:40:09.579Z,5.22
2023-02-06T07:45:10.934Z,4.20
2023-02-06T07:50:12.256Z,4.88
2023-02-06T07:55:13.585Z,4.53
2023-02-06T08:00:15.301Z,5.35
2023-02-06T08:05:16.743Z,4.93
2023-02-06T08:10:18.315Z,6.10
2023-02-06T08:15:19.784Z,10.32
2023-02-06T08:20:21.089Z,6.55
2023-02-06T08:25:22.505Z,7.05
2023-02-06T08:30:23.963Z,5.10
2023-02-06T08:35:25.370Z,5.15
2023-02-06T08:40:26.689Z,5.95
2023-02-06T08:45:27.997Z,6.57
2023-02-06T08:50:29.304Z,6.45
2023-02-06T08:55:30.790Z,7.50
2023-02-06T09:00:32.170Z,8.70
2023-02-06T09:05:34.661Z,6.78
2023-02-06T09:10:36.148Z,6.80
2023-02-06T09:15:38.034Z,6.68
2023-02-06T09:20:39.607Z,5.13
2023-02-06T09:25:40.935Z,6.93
2023-02-06T09:30:42.314Z,6.65
2023-02-06T09:35:43.639Z,6.20
2023-02-06T09:40:44.994Z,7.00
2023-02-06T09:45:47.647Z,6.78
2023-02-06T09:50:48.943Z,6.90
2023-02-06T09:56:12.138Z,7.00
2023-02-06T10:01:23.369Z,5.40
2023-02-06T10:06:26.925Z,5.10
2023-02-06T10:11:35.262Z,5.50
2023-02-06T10:16:40.188Z,6.82
2023-02-06T10:21:45.228Z,6.05
2023-02-06T10:26:47.971Z,6.20
2023-02-06T10:32:01.616Z,7.90
2023-02-06T10:37:06.228Z,9.73
2023-02-06T10:42:22.753Z,10.65
2023-02-06T10:47:26.986Z,9.23
2023-02-06T10:52:33.518Z,10.80
2023-02-06T10:57:34.873Z,11.23
2023-02-06T11:02:43.917Z,12.25
2023-02-06T11:07:46.333Z,10.07
2023-02-06T11:12:51.305Z,11.52
2023-02-06T11:17:53.399Z,12.13
2023-02-06T11:22:55.041Z,12.05
2023-02-06T11:27:56.926Z,11.35
2023-02-06T11:33:04.784Z,12.50
2023-02-06T11:38:23.118Z,12.23
2023-02-06T11:43:25.760Z,12.30
2023-02-06T11:48:31.592Z,12.18
2023-02-06T11:53:33.116Z,12.57
2023-02-06T11:58:34.480Z,11.88
2023-02-06T12:03:37.291Z,13.80
2023-02-06T12:08:52.241Z,12.02
2023-02-06T12:13:56.160Z,11.40
2023-02-06T12:18:57.819Z,13.15
2023-02-06T12:24:05.134Z,13.68
2023-02-06T12:29:09.730Z,13.35
2023-02-06T12:34:16.103Z,12.90
2023-02-06T12:39:19.898Z,12.57
2023-02-06T12:44:24.440Z,12.00
2023-02-06T12:49:29.240Z,11.52
2023-02-06T12:54:35.612Z,10.95
2023-02-06T12:59:58.233Z,14.35
2023-02-06T13:05:05.605Z,13.00
2023-02-06T13:10:07.309Z,11.63
2023-02-06T13:15:20.112Z,12.27
2023-02-06T13:20:22.336Z,11.63
2023-02-06T13:25:29.907Z,11.43
2023-02-06T13:30:31.554Z,11.80
2023-02-06T13:35:33.076Z,11.48
2023-02-06T13:40:35.327Z,11.30
2023-02-06T13:45:41.532Z,11.98
2023-02-06T13:50:42.853Z,11.90
2023-02-06T13:55:47.197Z,10.73
2023-02-06T14:00:49.814Z,10.75
2023-02-06T14:05:54.262Z,10.43
2023-02-06T14:11:04.653Z,9.90
2023-02-06T14:16:24.140Z,11.77
2023-02-06T14:21:38.547Z,12.98
2023-02-06T14:26:42.657Z,12.25
2023-02-06T14:31:53.067Z,13.15
2023-02-06T14:37:03.627Z,13.65
2023-02-06T14:42:06.557Z,13.32
2023-02-06T14:47:13.732Z,13.60
2023-02-06T14:52:19.991Z,13.65
2023-02-06T14:57:21.411Z,11.30
2023-02-06T15:02:25.056Z,9.90
2023-02-06T15:07:31.006Z,11.18
2023-02-06T15:12:32.511Z,11.30
2023-02-06T15:17:34.326Z,12.48
2023-02-06T15:22:35.788Z,9.48
2023-02-06T15:27:38.112Z,9.10
2023-02-06T15:32:41.043Z,9.13
2023-02-06T15:37:42.364Z,8.45
2023-02-06T15:42:44.061Z,8.82
2023-02-06T15:47:46.056Z,8.55
2023-02-06T15:52:48.081Z,8.27
2023-02-06T15:57:49.791Z,9.95
2023-02-06T16:02:51.660Z,10.70
2023-02-06T16:07:54.414Z,9.10
2023-02-06T16:12:57.263Z,9.25
2023-02-06T16:17:59.979Z,9.63
2023-02-06T16:23:19.904Z,9.30
2023-02-06T16:28:22.942Z,7.15
2023-02-06T16:33:44.655Z,8.27
2023-02-06T16:38:54.045Z,7.90
2023-02-06T16:44:03.884Z,8.00
2023-02-06T16:49:10.106Z,7.72
2023-02-06T16:54:21.281Z,7.75
2023-02-06T16:59:23.026Z,7.85
2023-02-06T17:04:24.459Z,8.98
2023-02-06T17:09:25.757Z,8.50
2023-02-06T17:14:27.243Z,8.13
2023-02-06T17:19:28.600Z,8.60
2023-02-06T17:24:29.955Z,7.53
2023-02-06T17:29:31.677Z,8.07
2023-02-06T17:34:33.244Z,8.85
2023-02-06T17:39:34.988Z,9.65
2023-02-06T17:44:36.330Z,8.88
2023-02-06T17:49:37.716Z,8.45
2023-02-06T17:54:39.200Z,9.30
2023-02-06T17:59:40.631Z,10.15
2023-02-06T18:04:42.034Z,11.80
2023-02-06T18:09:43.466Z,11.00
2023-02-06T18:14:44.922Z,10.60
2023-02-06T18:19:48.162Z,8.52
2023-02-06T18:24:50.109Z,9.95
2023-02-06T18:29:54.921Z,8.77
2023-02-06T18:34:57.168Z,9.70
2023-02-06T18:39:58.477Z,11.38
2023-02-06T18:44:59.871Z,9.55
2023-02-06T18:50:01.276Z,9.32
2023-02-06T18:55:02.692Z,9.20
2023-02-06T19:00:05.622Z,8.15
2023-02-06T19:05:07.506Z,8.95
2023-02-06T19:10:10.355Z,7.72
2023-02-06T19:15:12.249Z,7.90
2023-02-06T19:20:13.666Z,7.10
2023-02-06T19:25:15.048Z,7.60
2023-02-06T19:30:16.552Z,9.15
2023-02-06T19:35:18.812Z,9.43
2023-02-06T19:40:20.286Z,8.90
2023-02-06T19:45:21.657Z,8.07
2023-02-06T19:50:23.292Z,7.35
2023-02-06T19:55:24.629Z,7.65
2023-02-06T20:00:26.700Z,8.48
2023-02-06T20:05:28.186Z,7.40
2023-02-06T20:10:29.510Z,7.65
2023-02-06T20:15:31.881Z,7.80
2023-02-06T20:20:33.989Z,7.82
2023-02-06T20:25:38.348Z,6.55
2023-02-06T20:30:40.153Z,8.23
2023-02-06T20:35:44.679Z,7.82
2023-02-06T20:40:50.786Z,8.43
2023-02-06T20:45:52.359Z,8.15
2023-02-06T20:50:56.345Z,8.23
2023-02-06T20:55:58.094Z,7.07
2023-02-06T21:00:59.433Z,7.28
2023-02-06T21:06:00.834Z,6.50
2023-02-06T21:11:02.213Z,7.85
2023-02-06T21:16:03.732Z,7.88
2023-02-06T21:21:09.203Z,7.88
2023-02-06T21:26:13.553Z,7.43
2023-02-06T21:31:16.395Z,7.15
2023-02-06T21:36:18.153Z,8.13
2023-02-06T21:41:19.628Z,8.70
2023-02-06T21:46:21.216Z,6.72
2023-02-06T21:51:23.130Z,7.93
2023-02-06T21:56:25.484Z,6.90
2023-02-06T22:01:28.706Z,7.93
2023-02-06T22:06:30.339Z,7.35
2023-02-06T22:11:31.714Z,7.70
2023-02-06T22:16:33.416Z,8.50
2023-02-06T22:21:34.900Z,8.63
2023-02-06T22:26:38.550Z,7.65
2023-02-06T22:31:42.845Z,8.82
2023-02-06T22:36:46.976Z,9.10
2023-02-06T22:41:48.871Z,8.10
2023-02-06T22:46:51.595Z,9.30
2023-02-06T22:51:53.015Z,10.20
2023-02-06T22:56:54.431Z,10.27
2023-02-06T23:01:57.745Z,9.73
2023-02-06T23:06:59.197Z,11.02
2023-02-06T23:12:00.978Z,10.55
2023-02-06T23:17:03.192Z,11.68
2023-02-06T23:22:04.674Z,11.93
2023-02-06T23:27:06.115Z,10.73
2023-02-06T23:32:07.626Z,12.77
2023-02-06T23:37:09.050Z,12.18
2023-02-06T23:42:10.476Z,12.68
2023-02-06T23:47:11.803Z,12.77
2023-02-06T23:52:13.251Z,12.68
2023-02-06T23:57:14.674Z,11.70
